createdAt,value
2023-04-21T00:00:10.759Z,8.90
2023-04-21T00:02:41.518Z,10.20
2023-04-21T00:05:12.622Z,9.45
2023-04-21T00:07:41.659Z,10.45
2023-04-21T00:10:12.464Z,9.80
2023-04-21T00:12:41.405Z,9.83
2023-04-21T00:15:11.302Z,9.68
2023-04-21T00:17:41.336Z,11.65
2023-04-21T00:20:11.642Z,9.15
2023-04-21T00:22:40.062Z,11.60
2023-04-21T00:25:09.937Z,9.87
2023-04-21T00:27:38.621Z,9.75
2023-04-21T00:30:08.947Z,8.10
2023-04-21T00:32:37.458Z,9.38
2023-04-21T00:35:08.205Z,9.23
2023-04-21T00:37:36.741Z,8.07
2023-04-21T00:40:06.071Z,9.85
2023-04-21T00:42:34.573Z,9.50
2023-04-21T00:45:03.185Z,10.02
2023-04-21T00:47:31.749Z,9.93
2023-04-21T00:50:00.773Z,10.93
2023-04-21T00:52:31.249Z,9.55
2023-04-21T00:55:00.766Z,10.57
2023-04-21T00:57:29.745Z,11.63
2023-04-21T00:59:58.238Z,12.00
2023-04-21T01:02:28.549Z,11.93
2023-04-21T01:04:57.896Z,11.00
2023-04-21T01:07:27.284Z,10.82
2023-04-21T01:09:57.139Z,10.95
2023-04-21T01:12:25.771Z,10.95
2023-04-21T01:14:54.342Z,11.33
2023-04-21T01:17:22.957Z,11.35
2023-04-21T01:19:53.389Z,10.95
2023-04-21T01:22:23.336Z,10.85
2023-04-21T01:24:51.876Z,10.25
2023-04-21T01:27:22.842Z,10.80
2023-04-21T01:29:53.545Z,9.90
2023-04-21T01:32:24.910Z,11.50
2023-04-21T01:34:53.740Z,11.20
2023-04-21T01:37:28.006Z,10.57
2023-04-21T01:39:59.686Z,10.13
2023-04-21T01:42:30.709Z,11.77
2023-04-21T01:44:59.579Z,10.18
2023-04-21T01:47:28.275Z,11.27
2023-04-21T01:49:56.789Z,12.32
2023-04-21T01:52:26.956Z,14.60
2023-04-21T01:54:56.000Z,14.95
2023-04-21T01:57:24.491Z,13.35
2023-04-21T01:59:52.957Z,12.63
2023-04-21T02:02:21.548Z,12.25
2023-04-21T02:04:50.138Z,11.93
2023-04-21T02:07:18.869Z,9.52
2023-04-21T02:09:48.936Z,11.50
2023-04-21T02:12:17.680Z,9.05
2023-04-21T02:14:47.399Z,10.43
2023-04-21T02:17:16.727Z,9.90
2023-04-21T02:19:45.577Z,9.23
2023-04-21T02:22:14.816Z,9.05
2023-04-21T02:24:43.759Z,9.30
2023-04-21T02:27:13.611Z,9.43
2023-04-21T02:29:42.123Z,11.10
2023-04-21T02:32:22.264Z,9.77
2023-04-21T02:34:54.327Z,11.25
2023-04-21T02:37:22.852Z,15.52
2023-04-21T02:39:51.304Z,20.95
2023-04-21T02:42:21.243Z,20.50
2023-04-21T02:44:50.012Z,13.60
2023-04-21T02:47:18.567Z,10.32
2023-04-21T02:49:47.082Z,10.85
2023-04-21T02:52:16.124Z,12.55
2023-04-21T02:54:44.563Z,12.57
2023-04-21T02:57:13.073Z,11.23
2023-04-21T02:59:42.935Z,13.82
2023-04-21T03:02:11.683Z,13.93
2023-04-21T03:04:40.454Z,14.27
2023-04-21T03:07:14.313Z,10.07
2023-04-21T03:09:42.858Z,25.17
2023-04-21T03:12:11.372Z,103.93
2023-04-21T03:14:39.863Z,80.88
2023-04-21T03:17:09.727Z,74.63
2023-04-21T03:19:38.476Z,137.30
2023-04-21T03:22:07.038Z,221.38
2023-04-21T03:24:35.741Z,63.05
2023-04-21T03:27:04.184Z,50.15
2023-04-21T03:29:32.880Z,16.48
2023-04-21T03:32:01.950Z,12.00
2023-04-21T03:34:31.854Z,18.55
2023-04-21T03:37:00.553Z,76.63
2023-04-21T03:39:29.022Z,39.22
2023-04-21T03:41:58.164Z,134.52
2023-04-21T03:44:28.794Z,89.13
2023-04-21T03:46:57.922Z,169.80
2023-04-21T03:49:26.952Z,233.13
2023-04-21T03:51:56.882Z,131.13
2023-04-21T03:54:25.383Z,139.77
2023-04-21T03:56:54.381Z,135.90
2023-04-21T03:59:23.216Z,203.40
2023-04-21T04:01:51.837Z,118.38
2023-04-21T04:04:20.665Z,133.80
2023-04-21T04:06:49.325Z,106.13
2023-04-21T04:09:19.643Z,29.03
2023-04-21T04:11:48.769Z,49.45
2023-04-21T04:14:17.461Z,35.80
2023-04-21T04:16:45.993Z,115.30
2023-04-21T04:19:14.507Z,189.05
2023-04-21T04:21:43.199Z,90.00
2023-04-21T04:24:12.301Z,53.63
2023-04-21T04:26:42.814Z,73.10
2023-04-21T04:29:11.845Z,83.93
2023-04-21T04:31:40.511Z,59.97
2023-04-21T04:34:09.829Z,79.97
2023-04-21T04:36:38.376Z,65.80
2023-04-21T04:39:09.604Z,86.03
2023-04-21T04:41:38.454Z,47.10
2023-04-21T04:44:09.049Z,25.35
2023-04-21T04:46:37.689Z,28.20
2023-04-21T04:49:06.788Z,33.53
2023-04-21T04:51:35.570Z,21.20
2023-04-21T04:54:04.175Z,129.73
2023-04-21T04:56:33.073Z,31.75
2023-04-21T04:59:01.608Z,40.17
2023-04-21T05:01:31.564Z,41.63
2023-04-21T05:04:00.301Z,15.40
2023-04-21T05:06:29.737Z,19.08
2023-04-21T05:08:58.438Z,31.05
2023-04-21T05:11:26.974Z,37.67
2023-04-21T05:13:55.769Z,33.90
2023-04-21T05:16:24.874Z,19.50
2023-04-21T05:18:54.988Z,127.80
2023-04-21T05:21:28.431Z,38.22
2023-04-21T05:23:57.595Z,34.90
2023-04-21T05:26:27.673Z,35.65
2023-04-21T05:28:57.181Z,50.08
2023-04-21T05:31:26.049Z,39.88
2023-04-21T05:33:56.741Z,40.08
2023-04-21T05:36:26.035Z,49.60
2023-04-21T05:38:55.198Z,25.15
2023-04-21T05:41:24.808Z,18.83
2023-04-21T05:43:53.283Z,158.23
2023-04-21T05:46:21.818Z,45.17
2023-04-21T05:48:50.312Z,17.07
2023-04-21T05:51:20.233Z,45.05
2023-04-21T05:53:48.700Z,97.47
2023-04-21T05:56:17.185Z,44.42
2023-04-21T05:58:45.662Z,60.72
2023-04-21T06:01:16.560Z,70.53
2023-04-21T06:03:45.227Z,28.35
2023-04-21T06:06:15.165Z,28.33
2023-04-21T06:08:45.657Z,44.95
2023-04-21T06:11:14.185Z,180.38
2023-04-21T06:13:43.671Z,152.07
2023-04-21T06:16:12.388Z,48.60
2023-04-21T06:18:41.830Z,93.82
2023-04-21T06:21:11.105Z,61.00
2023-04-21T06:23:39.630Z,36.22
2023-04-21T06:26:09.688Z,41.50
2023-04-21T06:28:40.112Z,100.95
2023-04-21T06:31:09.949Z,58.55
2023-04-21T06:33:38.638Z,21.40
2023-04-21T06:36:09.104Z,22.85
2023-04-21T06:38:39.995Z,45.47
2023-04-21T06:41:11.783Z,27.92
2023-04-21T06:43:40.312Z,13.82
2023-04-21T06:46:08.914Z,13.25
2023-04-21T06:48:37.456Z,11.73
2023-04-21T06:51:06.366Z,9.50
2023-04-21T06:53:34.856Z,7.28
2023-04-21T06:56:03.372Z,4.22
2023-04-21T06:58:33.244Z,4.07
2023-04-21T07:01:03.013Z,3.22
2023-04-21T07:03:31.617Z,3.20
2023-04-21T07:06:00.202Z,3.30
2023-04-21T07:08:28.796Z,3.40
2023-04-21T07:10:58.840Z,3.55
2023-04-21T07:13:27.344Z,3.20
2023-04-21T07:15:57.421Z,3.40
2023-04-21T07:18:26.187Z,4.18
2023-04-21T07:20:54.919Z,4.55
2023-04-21T07:23:23.391Z,3.13
2023-04-21T07:25:51.873Z,3.20
2023-04-21T07:28:20.604Z,2.77
2023-04-21T07:30:49.352Z,3.60
2023-04-21T07:33:19.258Z,3.28
2023-04-21T07:35:48.085Z,3.25
2023-04-21T07:38:16.641Z,2.90
2023-04-21T07:40:45.348Z,3.10
2023-04-21T07:43:14.322Z,3.72
2023-04-21T07:45:42.805Z,5.07
2023-04-21T07:48:11.341Z,3.30
2023-04-21T07:50:42.654Z,3.20
2023-04-21T07:53:11.897Z,4.07
2023-04-21T07:55:40.635Z,2.95
2023-04-21T07:58:10.514Z,3.45
2023-04-21T08:00:39.211Z,3.35
2023-04-21T08:03:08.086Z,3.28
2023-04-21T08:05:40.143Z,3.60
2023-04-21T08:08:10.924Z,4.00
2023-04-21T08:10:39.385Z,3.72
2023-04-21T08:13:08.950Z,3.83
2023-04-21T08:15:37.555Z,3.25
2023-04-21T08:18:06.301Z,3.10
2023-04-21T08:20:35.483Z,4.28
2023-04-21T08:23:04.017Z,3.97
2023-04-21T08:25:33.939Z,2.90
2023-04-21T08:28:02.500Z,3.20
2023-04-21T08:33:21.167Z,2.72
2023-04-21T08:36:02.298Z,2.90
2023-04-21T08:38:32.675Z,4.80
2023-04-21T08:41:02.810Z,3.10
2023-04-21T08:43:31.845Z,3.20
2023-04-21T08:46:01.715Z,2.72
2023-04-21T08:48:32.937Z,6.63
2023-04-21T08:51:02.312Z,3.10
2023-04-21T08:53:30.888Z,3.05
2023-04-21T08:56:09.962Z,5.43
2023-04-21T08:58:41.937Z,4.32
2023-04-21T09:01:11.246Z,3.10
2023-04-21T09:03:40.002Z,3.20
2023-04-21T09:06:12.698Z,3.22
2023-04-21T09:08:46.065Z,2.97
2023-04-21T09:11:16.858Z,2.97
2023-04-21T09:13:46.878Z,3.00
2023-04-21T09:16:21.937Z,5.22
2023-04-21T09:18:52.175Z,3.90
2023-04-21T09:21:23.319Z,3.23
2023-04-21T09:23:55.890Z,3.35
2023-04-21T09:26:24.803Z,6.85
2023-04-21T09:28:55.078Z,4.22
2023-04-21T09:31:25.694Z,2.90
2023-04-21T09:34:00.263Z,3.00
2023-04-21T09:36:32.076Z,3.30
2023-04-21T09:39:29.009Z,47.03
2023-04-21T09:41:51.581Z,10.00
2023-04-21T09:44:21.740Z,3.78
2023-04-21T09:46:52.480Z,3.20
2023-04-21T09:49:24.818Z,3.78
2023-04-21T09:54:32.284Z,4.60
2023-04-21T09:57:02.827Z,4.45
2023-04-21T09:59:37.526Z,4.77
2023-04-21T10:02:08.733Z,4.10
2023-04-21T10:04:39.390Z,4.30
2023-04-21T10:07:08.818Z,3.90
2023-04-21T10:09:43.403Z,4.57
2023-04-21T10:12:12.916Z,3.90
2023-04-21T10:14:42.785Z,4.38
2023-04-21T10:17:12.433Z,3.47
2023-04-21T10:19:53.236Z,3.90
2023-04-21T10:22:29.881Z,4.30
2023-04-21T10:25:00.363Z,3.77
2023-04-21T10:27:36.941Z,3.40
2023-04-21T10:30:23.565Z,3.65
2023-04-21T10:33:05.141Z,3.20
2023-04-21T10:36:01.409Z,4.15
2023-04-21T10:38:36.538Z,5.33
2023-04-21T10:41:30.050Z,3.70
2023-04-21T10:44:00.762Z,4.40
2023-04-21T10:46:39.562Z,5.97
2023-04-21T10:49:10.048Z,3.40
2023-04-21T10:52:06.819Z,3.83
2023-04-21T10:54:43.708Z,3.22
2023-04-21T10:57:13.936Z,4.18
2023-04-21T10:59:43.501Z,3.45
2023-04-21T11:02:16.041Z,4.32
2023-04-21T11:04:49.172Z,4.73
2023-04-21T11:07:20.380Z,3.30
2023-04-21T11:09:51.308Z,3.45
2023-04-21T11:12:20.302Z,3.40
2023-04-21T11:14:49.520Z,3.60
2023-04-21T11:17:21.589Z,4.83
2023-04-21T11:19:54.286Z,5.45
2023-04-21T11:22:28.616Z,4.22
2023-04-21T11:24:59.071Z,5.28
2023-04-21T11:27:30.200Z,5.50
2023-04-21T11:29:59.219Z,6.20
2023-04-21T11:32:29.567Z,17.42
2023-04-21T11:34:58.161Z,5.95
2023-04-21T11:37:28.292Z,4.15
2023-04-21T11:40:00.925Z,3.90
2023-04-21T11:42:30.104Z,3.87
2023-04-21T11:44:59.286Z,3.72
2023-04-21T11:47:30.161Z,3.40
2023-04-21T11:50:00.834Z,3.95
2023-04-21T11:52:33.152Z,5.03
2023-04-21T11:55:04.526Z,3.37
2023-04-21T11:57:34.734Z,6.32
2023-04-21T12:00:08.194Z,4.07
2023-04-21T12:02:38.161Z,3.60
2023-04-21T12:05:09.399Z,3.60
2023-04-21T12:07:40.647Z,4.30
2023-04-21T12:10:12.763Z,4.00
2023-04-21T12:12:42.378Z,3.90
2023-04-21T12:15:13.175Z,3.95
2023-04-21T12:17:47.011Z,3.78
2023-04-21T12:20:18.639Z,4.23
2023-04-21T12:22:47.722Z,3.85
2023-04-21T12:25:16.681Z,3.30
2023-04-21T12:27:50.208Z,3.20
2023-04-21T12:30:18.940Z,3.33
2023-04-21T12:32:49.034Z,3.73
2023-04-21T12:35:17.891Z,3.50
2023-04-21T12:37:47.037Z,3.33
2023-04-21T12:40:15.860Z,4.07
2023-04-21T12:42:44.412Z,3.10
2023-04-21T12:45:13.759Z,3.20
2023-04-21T12:47:43.618Z,3.67
2023-04-21T12:50:15.830Z,3.47
2023-04-21T12:52:44.358Z,3.55
2023-04-21T12:55:13.834Z,3.83
2023-04-21T12:57:42.367Z,2.83
2023-04-21T13:00:15.122Z,3.22
2023-04-21T13:02:43.837Z,3.10
2023-04-21T13:05:15.135Z,3.25
2023-04-21T13:07:43.681Z,3.35
2023-04-21T13:10:12.878Z,4.40
2023-04-21T13:12:41.588Z,3.10
2023-04-21T13:15:12.064Z,3.30
2023-04-21T13:17:40.616Z,3.10
2023-04-21T13:20:10.298Z,3.63
2023-04-21T13:22:40.445Z,4.43
2023-04-21T13:25:10.352Z,5.10
2023-04-21T13:27:40.397Z,3.78
2023-04-21T13:30:12.080Z,3.53
2023-04-21T13:32:41.304Z,14.15
2023-04-21T13:35:10.859Z,7.37
2023-04-21T13:37:42.512Z,5.82
2023-04-21T13:40:12.563Z,4.47
2023-04-21T13:42:41.493Z,9.15
2023-04-21T13:45:11.709Z,8.18
2023-04-21T13:47:40.410Z,3.30
2023-04-21T13:50:10.486Z,4.40
2023-04-21T13:52:40.853Z,3.58
2023-04-21T13:55:11.397Z,4.68
2023-04-21T13:57:40.285Z,8.00
2023-04-21T14:00:12.210Z,5.47
2023-04-21T14:02:42.084Z,3.72
2023-04-21T14:05:11.146Z,4.60
2023-04-21T14:07:41.366Z,3.30
2023-04-21T14:10:12.107Z,5.68
2023-04-21T14:12:40.663Z,5.13
2023-04-21T14:15:10.505Z,5.53
2023-04-21T14:17:39.540Z,8.70
2023-04-21T14:20:10.504Z,4.82
2023-04-21T14:22:40.630Z,4.13
2023-04-21T14:25:10.068Z,8.07
2023-04-21T14:27:38.778Z,5.93
2023-04-21T14:30:10.618Z,4.32
2023-04-21T14:32:44.635Z,3.33
2023-04-21T14:35:13.304Z,3.83
2023-04-21T14:37:43.371Z,3.20
2023-04-21T14:40:12.818Z,4.13
2023-04-21T14:42:41.648Z,4.97
2023-04-21T14:45:11.890Z,3.55
2023-04-21T14:47:40.858Z,3.55
2023-04-21T14:50:10.662Z,3.07
2023-04-21T14:52:39.944Z,3.80
2023-04-21T14:55:11.117Z,3.55
2023-04-21T14:57:39.799Z,3.20
2023-04-21T15:00:10.674Z,3.55
2023-04-21T15:02:40.807Z,4.50
2023-04-21T15:05:10.754Z,4.85
2023-04-21T15:07:40.776Z,3.70
2023-04-21T15:10:12.121Z,3.97
2023-04-21T15:12:42.112Z,3.80
2023-04-21T15:15:11.539Z,2.80
2023-04-21T15:17:40.112Z,2.92
2023-04-21T15:20:11.254Z,4.32
2023-04-21T15:22:40.100Z,3.42
2023-04-21T15:25:10.856Z,6.78
2023-04-21T15:27:39.340Z,10.13
2023-04-21T15:30:09.264Z,9.07
2023-04-21T15:32:37.869Z,8.07
2023-04-21T15:35:07.920Z,5.10
2023-04-21T15:37:36.477Z,3.25
2023-04-21T15:40:06.256Z,3.33
2023-04-21T15:42:36.197Z,4.22
2023-04-21T15:45:05.305Z,3.40
2023-04-21T15:47:33.906Z,3.10
2023-04-21T15:50:02.721Z,4.00
2023-04-21T15:52:31.240Z,4.47
2023-04-21T15:54:59.769Z,5.20
2023-04-21T15:57:28.484Z,3.80
2023-04-21T15:59:58.600Z,3.40
2023-04-21T16:02:27.508Z,4.32
2023-04-21T16:04:56.316Z,3.20
2023-04-21T16:07:25.282Z,4.78
2023-04-21T16:09:54.077Z,3.60
2023-04-21T16:12:22.677Z,3.85
2023-04-21T16:14:57.583Z,3.60
2023-04-21T16:17:33.768Z,3.90
2023-04-21T16:20:02.279Z,3.58
2023-04-21T16:22:31.412Z,3.63
2023-04-21T16:25:00.851Z,4.70
2023-04-21T16:27:29.688Z,4.70
2023-04-21T16:29:58.363Z,4.33
2023-04-21T16:32:27.064Z,5.32
2023-04-21T16:34:57.061Z,4.68
2023-04-21T16:37:25.835Z,3.90
2023-04-21T16:39:54.378Z,4.50
2023-04-21T16:42:22.910Z,4.80
2023-04-21T16:44:51.912Z,3.70
2023-04-21T16:47:20.563Z,4.18
2023-04-21T16:49:49.096Z,4.93
2023-04-21T16:52:19.162Z,4.72
2023-04-21T16:54:47.658Z,4.73
2023-04-21T16:57:16.307Z,8.60
2023-04-21T16:59:45.547Z,4.97
2023-04-21T17:02:14.444Z,5.60
2023-04-21T17:04:42.977Z,12.65
2023-04-21T17:07:11.632Z,5.90
2023-04-21T17:09:41.973Z,4.90
2023-04-21T17:12:10.718Z,4.28
2023-04-21T17:14:39.453Z,6.95
2023-04-21T17:17:08.281Z,5.13
2023-04-21T17:19:37.148Z,3.67
2023-04-21T17:22:05.693Z,5.35
2023-04-21T17:24:49.062Z,5.22
2023-04-21T17:27:22.816Z,4.20
2023-04-21T17:29:51.303Z,5.78
2023-04-21T17:32:19.994Z,3.77
2023-04-21T17:34:48.822Z,4.20
2023-04-21T17:37:17.377Z,4.55
2023-04-21T17:39:45.959Z,4.05
2023-04-21T17:42:14.485Z,4.00
2023-04-21T17:44:44.807Z,4.30
2023-04-21T17:47:13.444Z,5.28
2023-04-21T17:49:42.102Z,5.05
2023-04-21T17:52:10.635Z,3.47
2023-04-21T17:54:40.218Z,4.15
2023-04-21T17:57:09.033Z,3.70
2023-04-21T17:59:37.742Z,4.30
2023-04-21T18:02:08.297Z,4.97
2023-04-21T18:04:37.440Z,4.80
2023-04-21T18:07:06.572Z,3.85
2023-04-21T18:09:35.064Z,6.73
2023-04-21T18:12:04.144Z,4.78
2023-04-21T18:14:32.943Z,5.85
2023-04-21T18:17:01.856Z,4.22
2023-04-21T18:19:31.825Z,3.80
2023-04-21T18:22:00.739Z,4.67
2023-04-21T18:24:29.401Z,4.07
2023-04-21T18:26:57.910Z,4.13
2023-04-21T18:29:26.663Z,4.00
2023-04-21T18:31:55.320Z,8.80
2023-04-21T18:34:24.011Z,4.33
2023-04-21T18:36:53.873Z,3.90
2023-04-21T18:39:22.359Z,5.05
2023-04-21T18:41:52.051Z,4.20
2023-04-21T18:44:20.976Z,6.30
2023-04-21T18:46:49.501Z,6.07
2023-04-21T18:49:18.046Z,5.45
2023-04-21T18:51:46.633Z,4.68
2023-04-21T18:54:16.732Z,4.43
2023-04-21T18:56:46.247Z,6.40
2023-04-21T18:59:14.731Z,4.17
2023-04-21T19:01:43.332Z,5.30
2023-04-21T19:04:12.364Z,5.70
2023-04-21T19:06:41.478Z,4.43
2023-04-21T19:09:09.988Z,7.15
2023-04-21T19:11:40.198Z,4.93
2023-04-21T19:14:08.916Z,5.88
2023-04-21T19:16:38.559Z,5.32
2023-04-21T19:19:07.229Z,6.75
2023-04-21T19:21:35.956Z,4.68
2023-04-21T19:24:05.127Z,4.20
2023-04-21T19:26:33.625Z,5.18
2023-04-21T19:29:03.943Z,4.88
2023-04-21T19:31:32.507Z,5.05
2023-04-21T19:34:01.282Z,4.35
2023-04-21T19:36:29.796Z,5.03
2023-04-21T19:38:58.809Z,7.13
2023-04-21T19:41:27.346Z,5.85
2023-04-21T19:43:56.224Z,5.85
2023-04-21T19:46:26.219Z,5.75
2023-04-21T19:48:55.041Z,6.10
2023-04-21T19:51:24.828Z,4.82
2023-04-21T19:54:03.103Z,4.88
2023-04-21T19:56:36.794Z,5.85
2023-04-21T19:59:05.847Z,4.40
2023-04-21T20:01:36.218Z,4.10
2023-04-21T20:04:06.686Z,6.85
2023-04-21T20:06:35.811Z,4.60
2023-04-21T20:09:06.021Z,6.05
2023-04-21T20:11:35.166Z,4.53
2023-04-21T20:14:03.779Z,5.30
2023-04-21T20:16:32.990Z,4.30
2023-04-21T20:19:02.945Z,4.43
2023-04-21T20:21:32.652Z,6.28
2023-04-21T20:24:02.349Z,4.85
2023-04-21T20:26:30.911Z,6.17
2023-04-21T20:28:59.740Z,4.97
2023-04-21T20:31:28.322Z,6.13
2023-04-21T20:33:57.813Z,4.57
2023-04-21T20:36:28.641Z,4.53
2023-04-21T20:39:00.164Z,4.10
2023-04-21T20:41:29.772Z,4.80
2023-04-21T20:43:58.263Z,4.30
2023-04-21T20:46:26.853Z,4.22
2023-04-21T20:48:55.431Z,5.75
2023-04-21T20:51:23.972Z,7.77
2023-04-21T20:53:53.891Z,5.50
2023-04-21T20:56:22.641Z,4.55
2023-04-21T20:58:51.297Z,3.85
2023-04-21T21:01:19.869Z,5.07
2023-04-21T21:03:48.693Z,4.47
2023-04-21T21:06:19.779Z,4.07
2023-04-21T21:08:48.338Z,5.45
2023-04-21T21:11:18.371Z,4.10
2023-04-21T21:13:47.060Z,3.80
2023-04-21T21:16:15.662Z,6.33
2023-04-21T21:18:44.487Z,3.83
2023-04-21T21:21:13.796Z,4.68
2023-04-21T21:23:42.646Z,4.30
2023-04-21T21:26:11.239Z,3.78
2023-04-21T21:28:41.385Z,3.73
2023-04-21T21:31:09.866Z,4.38
2023-04-21T21:33:38.433Z,4.40
2023-04-21T21:36:08.078Z,3.50
2023-04-21T21:38:36.660Z,6.75
2023-04-21T21:41:05.986Z,4.50
2023-04-21T21:43:34.475Z,4.22
2023-04-21T21:46:04.828Z,5.05
2023-04-21T21:48:33.772Z,4.07
2023-04-21T21:51:02.244Z,4.93
2023-04-21T21:53:30.951Z,7.13
2023-04-21T21:55:59.823Z,5.07
2023-04-21T21:58:28.561Z,7.32
2023-04-21T22:00:57.235Z,4.75
2023-04-21T22:03:27.342Z,4.22
2023-04-21T22:05:56.015Z,4.77
2023-04-21T22:08:24.500Z,4.10
2023-04-21T22:10:53.236Z,3.40
2023-04-21T22:13:21.764Z,4.15
2023-04-21T22:15:50.481Z,4.55
2023-04-21T22:18:19.804Z,3.90
2023-04-21T22:20:50.007Z,5.45
2023-04-21T22:23:20.460Z,4.22
2023-04-21T22:25:49.044Z,4.90
2023-04-21T22:28:17.551Z,3.97
2023-04-21T22:30:46.093Z,4.00
2023-04-21T22:33:14.791Z,5.70
2023-04-21T22:35:43.289Z,4.05
2023-04-21T22:38:13.176Z,4.75
2023-04-21T22:40:41.923Z,5.15
2023-04-21T22:43:10.839Z,4.43
2023-04-21T22:45:39.439Z,4.05
2023-04-21T22:48:08.020Z,4.32
2023-04-21T22:50:36.579Z,4.25
2023-04-21T22:53:05.102Z,4.35
2023-04-21T22:55:35.048Z,3.90
2023-04-21T22:58:03.527Z,6.57
2023-04-21T23:00:32.200Z,4.60
2023-04-21T23:03:00.890Z,4.78
2023-04-21T23:05:30.589Z,3.95
2023-04-21T23:07:59.454Z,4.00
2023-04-21T23:10:29.196Z,5.55
2023-04-21T23:13:01.548Z,4.53
2023-04-21T23:15:32.162Z,4.07
2023-04-21T23:18:01.081Z,4.00
2023-04-21T23:20:29.622Z,3.97
2023-04-21T23:22:58.273Z,4.53
2023-04-21T23:25:26.927Z,4.22
2023-04-21T23:27:55.623Z,4.82
2023-04-21T23:30:25.656Z,4.30
2023-04-21T23:32:54.207Z,4.07
2023-04-21T23:35:22.761Z,6.18
2023-04-21T23:37:51.253Z,6.95
2023-04-21T23:40:20.345Z,4.70
2023-04-21T23:42:49.066Z,5.93
2023-04-21T23:45:17.874Z,5.23
2023-04-21T23:47:48.021Z,5.40
2023-04-21T23:50:16.549Z,5.45
2023-04-21T23:52:45.088Z,5.88
2023-04-21T23:55:13.815Z,5.05
2023-04-21T23:57:44.608Z,4.10
